createdAt,value
2023-02-22T00:02:30.074Z,100879.84
2023-02-22T00:05:36.472Z,100880.06
2023-02-22T00:08:13.158Z,100880.06
2023-02-22T00:10:41.679Z,100880.91
2023-02-22T00:13:14.864Z,100865.97
2023-02-22T01:38:50.930Z,100853.31
2023-02-22T02:31:40.636Z,100824.22
2023-02-22T02:34:43.376Z,100824.03
2023-02-22T02:37:32.226Z,100830.94
2023-02-22T02:40:30.446Z,100826.22
2023-02-22T02:44:01.521Z,100824.78
2023-02-22T02:46:57.147Z,100808.66
2023-02-22T02:50:01.352Z,100815.25
2023-02-22T02:55:25.734Z,100825.25
2023-02-22T02:57:54.737Z,100819.34
2023-02-22T03:00:32.542Z,100829.59
2023-02-22T03:03:26.255Z,100824.56
2023-02-22T03:06:21.123Z,100840.47
2023-02-22T03:09:10.136Z,100853.19
2023-02-22T03:12:11.775Z,100835.16
2023-02-22T03:14:57.323Z,100844.34
2023-02-22T03:17:34.535Z,100829.56
2023-02-22T03:20:38.548Z,100856.25
2023-02-22T03:23:26.234Z,100840.44
2023-02-22T03:26:06.173Z,100826.44
2023-02-22T03:28:37.491Z,100828.31
2023-02-22T03:31:14.007Z,100810.13
2023-02-22T03:33:54.038Z,100819.78
2023-02-22T03:36:40.339Z,100776.63
2023-02-22T03:39:17.292Z,100785.63
2023-02-22T03:41:52.623Z,100774.06
2023-02-22T03:44:26.422Z,100757.13
2023-02-22T03:46:59.952Z,100760.63
2023-02-22T03:49:36.209Z,100773.44
2023-02-22T03:52:06.351Z,100802.81
2023-02-22T03:54:35.923Z,100825.69
2023-02-22T03:57:36.393Z,100829.19
2023-02-22T04:00:10.034Z,100829.88
2023-02-22T04:02:39.132Z,100830.66
2023-02-22T04:05:08.358Z,100840.56
2023-02-22T04:07:37.385Z,100828.38
2023-02-22T04:10:09.794Z,100840.75
2023-02-22T04:12:39.177Z,100835.06
2023-02-22T04:15:10.181Z,100827.47
2023-02-22T04:17:38.447Z,100848.38
2023-02-22T04:20:08.149Z,100864.22
2023-02-22T04:22:36.516Z,100865.25
2023-02-22T04:25:05.033Z,100882.53
2023-02-22T04:27:33.471Z,100891.59
2023-02-22T04:30:01.768Z,100893.47
2023-02-22T04:32:30.091Z,100906.13
2023-02-22T04:34:58.359Z,100901.94
2023-02-22T04:37:29.680Z,100886.81
2023-02-22T04:39:58.009Z,100893.88
2023-02-22T04:42:26.292Z,100892.53
2023-02-22T04:44:57.624Z,100887.50
2023-02-22T04:47:26.348Z,100887.75
2023-02-22T04:49:55.109Z,100896.53
2023-02-22T04:52:24.117Z,100893.69
2023-02-22T04:54:58.628Z,100894.81
2023-02-22T04:57:36.362Z,100898.94
2023-02-22T05:00:06.903Z,100885.09
2023-02-22T05:02:36.101Z,100898.00
2023-02-22T05:05:06.842Z,100901.00
2023-02-22T05:08:00.124Z,100898.53
2023-02-22T05:10:28.581Z,100888.75
2023-02-22T05:15:22.503Z,100897.56
2023-02-22T05:17:59.150Z,100902.91
2023-02-22T05:20:36.920Z,100910.16
2023-02-22T05:23:06.387Z,100920.59
2023-02-22T05:26:08.128Z,100916.06
2023-02-22T05:28:59.067Z,100898.13
2023-02-22T05:31:27.578Z,100907.09
2023-02-22T05:33:56.364Z,100895.59
2023-02-22T05:36:25.497Z,100907.63
2023-02-22T05:39:00.594Z,100910.16
2023-02-22T05:41:30.415Z,100902.81
2023-02-22T05:43:58.982Z,100889.31
2023-02-22T05:46:27.403Z,100895.28
2023-02-22T05:48:56.457Z,100895.47
2023-02-22T05:52:00.567Z,100894.78
2023-02-22T05:54:28.988Z,100891.69
2023-02-22T05:57:00.326Z,100894.34
2023-02-22T05:59:28.789Z,100888.66
2023-02-22T06:02:00.265Z,100891.81
2023-02-22T06:04:28.901Z,100891.47
2023-02-22T06:06:58.793Z,100893.88
2023-02-22T06:09:27.113Z,100885.69
2023-02-22T06:11:58.300Z,100886.41
2023-02-22T06:14:29.080Z,100896.53
2023-02-22T06:16:58.916Z,100895.38
2023-02-22T06:19:27.890Z,100892.44
2023-02-22T06:22:00.879Z,100889.13
2023-02-22T06:24:29.221Z,100870.94
2023-02-22T06:26:59.410Z,100880.56
2023-02-22T06:29:30.794Z,100887.56
2023-02-22T06:31:59.350Z,100890.22
2023-02-22T06:34:30.819Z,100893.50
2023-02-22T06:37:00.061Z,100887.25
2023-02-22T06:39:28.642Z,100884.28
2023-02-22T06:41:58.590Z,100881.88
2023-02-22T06:44:26.995Z,100883.13
2023-02-22T06:47:01.497Z,100880.03
2023-02-22T06:49:29.920Z,100876.81
2023-02-22T06:51:58.401Z,100862.59
2023-02-22T06:54:28.074Z,100868.47
2023-02-22T06:56:59.201Z,100848.75
2023-02-22T06:59:28.828Z,100858.66
2023-02-22T07:01:57.492Z,100862.22
2023-02-22T07:04:26.203Z,100854.22
2023-02-22T07:06:55.731Z,100848.84
2023-02-22T07:09:26.768Z,100846.19
2023-02-22T07:11:58.265Z,100831.47
2023-02-22T07:14:33.673Z,100833.38
2023-02-22T07:17:02.644Z,100826.31
2023-02-22T07:19:31.038Z,100824.63
2023-02-22T07:22:00.412Z,100823.66
2023-02-22T07:24:31.418Z,100815.94
2023-02-22T07:27:02.290Z,100814.94
2023-02-22T07:29:32.325Z,100815.06
2023-02-22T07:32:01.230Z,100823.31
2023-02-22T07:34:29.691Z,100819.53
2023-02-22T07:37:01.095Z,100819.00
2023-02-22T07:39:29.414Z,100821.00
2023-02-22T07:41:57.645Z,100800.03
2023-02-22T07:44:29.790Z,100825.22
2023-02-22T07:46:58.116Z,100816.59
2023-02-22T07:49:26.612Z,100814.88
2023-02-22T07:51:55.445Z,100828.50
2023-02-22T07:54:32.877Z,100835.97
2023-02-22T07:57:02.035Z,100840.50
2023-02-22T07:59:30.402Z,100827.34
2023-02-22T08:01:58.787Z,100831.31
2023-02-22T08:04:27.373Z,100816.88
2023-02-22T08:06:56.057Z,100840.69
2023-02-22T08:09:24.974Z,100824.16
2023-02-22T08:11:54.126Z,100825.78
2023-02-22T08:14:28.449Z,100829.13
2023-02-22T08:16:57.049Z,100828.03
2023-02-22T08:19:25.914Z,100832.47
2023-02-22T08:21:54.766Z,100824.56
2023-02-22T08:24:23.447Z,100820.88
2023-02-22T08:26:52.417Z,100823.31
2023-02-22T08:29:21.393Z,100799.69
2023-02-22T08:31:56.227Z,100811.09
2023-02-22T08:34:25.723Z,100810.31
2023-02-22T08:36:55.060Z,100797.81
2023-02-22T08:39:23.972Z,100793.44
2023-02-22T08:41:52.885Z,100795.00
2023-02-22T08:44:22.274Z,100795.56
2023-02-22T08:46:51.290Z,100780.69
2023-02-22T08:49:21.807Z,100803.56
2023-02-22T08:51:50.079Z,100824.16
2023-02-22T08:54:19.496Z,100823.16
2023-02-22T08:56:48.670Z,100829.28
2023-02-22T08:59:18.533Z,100818.22
2023-02-22T09:01:47.588Z,100820.19
2023-02-22T09:04:30.198Z,100832.41
2023-02-22T09:06:58.542Z,100821.03
2023-02-22T09:09:26.800Z,100832.25
2023-02-22T09:11:55.359Z,100836.03
2023-02-22T09:14:24.237Z,100835.50
2023-02-22T09:16:53.178Z,100836.59
2023-02-22T09:19:27.950Z,100836.97
2023-02-22T09:21:58.092Z,100840.75
2023-02-22T09:24:29.705Z,100820.56
2023-02-22T09:26:57.674Z,100825.72
2023-02-22T09:29:28.135Z,100833.16
2023-02-22T09:31:59.688Z,100842.16
2023-02-22T09:34:30.606Z,100841.94
2023-02-22T09:36:59.119Z,100840.38
2023-02-22T09:39:27.587Z,100843.19
2023-02-22T09:42:15.095Z,100848.63
2023-02-22T09:44:54.822Z,100838.44
2023-02-22T09:47:33.266Z,100852.38
2023-02-22T09:50:31.435Z,100863.53
2023-02-22T09:53:30.475Z,100860.91
2023-02-22T09:56:08.260Z,100855.94
2023-02-22T09:58:44.207Z,100850.66
2023-02-22T10:01:33.777Z,100853.44
2023-02-22T10:04:04.928Z,100832.69
2023-02-22T10:06:36.407Z,100829.28
2023-02-22T10:09:09.216Z,100841.06
2023-02-22T10:11:59.296Z,100832.00
2023-02-22T10:14:53.012Z,100813.97
2023-02-22T10:17:37.816Z,100816.69
2023-02-22T10:20:16.431Z,100808.47
2023-02-22T10:23:35.412Z,100811.03
2023-02-22T10:26:26.967Z,100796.91
2023-02-22T10:29:00.370Z,100801.31
2023-02-22T10:31:36.711Z,100793.69
2023-02-22T10:34:13.810Z,100791.97
2023-02-22T10:36:52.364Z,100790.34
2023-02-22T10:39:33.894Z,100795.78
2023-02-22T10:42:08.923Z,100788.81
2023-02-22T10:44:39.759Z,100781.66
2023-02-22T10:47:12.466Z,100763.94
2023-02-22T10:49:48.906Z,100771.66
2023-02-22T10:52:26.911Z,100757.31
2023-02-22T10:55:13.606Z,100766.16
2023-02-22T10:57:46.835Z,100744.53
2023-02-22T11:00:46.603Z,100757.06
2023-02-22T11:03:24.219Z,100756.34
2023-02-22T11:05:53.748Z,100760.63
2023-02-22T11:08:34.422Z,100742.66
2023-02-22T11:11:05.835Z,100747.69
2023-02-22T11:13:39.654Z,100751.41
2023-02-22T11:16:32.699Z,100749.25
2023-02-22T11:19:27.055Z,100736.03
2023-02-22T11:22:23.703Z,100741.91
2023-02-22T11:25:04.239Z,100731.69
2023-02-22T11:27:48.115Z,100729.34
2023-02-22T11:30:30.257Z,100747.19
2023-02-22T11:33:24.505Z,100751.53
2023-02-22T11:35:59.040Z,100758.06
2023-02-22T11:38:33.334Z,100746.91
2023-02-22T11:41:17.600Z,100758.00
2023-02-22T11:43:49.429Z,100771.09
2023-02-22T11:46:22.577Z,100774.09
2023-02-22T11:49:09.684Z,100766.72
2023-02-22T11:52:05.370Z,100759.66
2023-02-22T11:54:34.098Z,100758.03
2023-02-22T11:57:22.962Z,100750.91
2023-02-22T12:00:26.948Z,100764.69
2023-02-22T12:03:04.455Z,100767.94
2023-02-22T12:06:04.528Z,100768.00
2023-02-22T12:08:42.234Z,100779.09
2023-02-22T12:11:45.654Z,100777.88
2023-02-22T12:14:40.579Z,100787.53
2023-02-22T12:17:33.474Z,100787.13
2023-02-22T12:20:11.213Z,100796.00
2023-02-22T12:22:48.183Z,100791.50
2023-02-22T12:25:25.835Z,100794.16
2023-02-22T12:27:56.214Z,100804.97
2023-02-22T12:30:43.236Z,100804.66
2023-02-22T12:33:30.916Z,100786.41
2023-02-22T12:36:02.214Z,100782.56
2023-02-22T12:38:45.510Z,100782.97
2023-02-22T12:44:18.503Z,100799.13
2023-02-22T12:46:56.417Z,100798.41
2023-02-22T12:49:53.086Z,100794.09
2023-02-22T12:52:43.422Z,100796.31
2023-02-22T12:55:18.666Z,100787.63
2023-02-22T12:58:08.422Z,100790.03
2023-02-22T13:00:59.839Z,100786.53
2023-02-22T13:03:45.876Z,100802.31
2023-02-22T13:06:26.072Z,100799.47
2023-02-22T13:09:38.342Z,100806.75
2023-02-22T13:12:26.535Z,100811.88
2023-02-22T13:15:00.767Z,100815.50
2023-02-22T13:17:51.257Z,100829.44
2023-02-22T13:20:30.062Z,100824.84
2023-02-22T13:23:17.185Z,100815.81
2023-02-22T13:26:29.916Z,100823.47
2023-02-22T13:29:29.540Z,100817.66
2023-02-22T13:32:33.031Z,100822.94
2023-02-22T13:36:24.335Z,100827.00
2023-02-22T13:39:16.695Z,100813.22
2023-02-22T13:42:12.472Z,100813.16
2023-02-22T13:45:09.714Z,100825.28
2023-02-22T13:47:53.559Z,100826.88
2023-02-22T13:50:40.122Z,100821.06
2023-02-22T13:54:24.276Z,100822.06
2023-02-22T13:57:05.716Z,100840.75
2023-02-22T13:59:36.906Z,100833.59
2023-02-22T14:02:10.767Z,100842.63
2023-02-22T14:04:43.756Z,100840.81
2023-02-22T14:07:27.439Z,100846.09
2023-02-22T14:10:05.738Z,100854.44
2023-02-22T14:12:37.110Z,100861.16
2023-02-22T14:15:26.786Z,100851.03
2023-02-22T14:18:04.633Z,100851.72
2023-02-22T14:20:37.709Z,100842.91
2023-02-22T14:23:35.692Z,100849.47
2023-02-22T14:26:23.154Z,100842.13
2023-02-22T14:29:03.936Z,100846.69
2023-02-22T14:31:38.175Z,100855.44
2023-02-22T14:34:11.153Z,100849.19
2023-02-22T14:36:48.531Z,100857.09
2023-02-22T14:39:39.409Z,100865.44
2023-02-22T14:42:26.731Z,100867.88
2023-02-22T14:45:36.782Z,100866.75
2023-02-22T14:48:39.878Z,100871.19
2023-02-22T14:51:23.664Z,100876.03
2023-02-22T14:53:53.456Z,100875.47
2023-02-22T14:56:54.939Z,100880.00
2023-02-22T14:59:29.879Z,100885.63
2023-02-22T15:02:12.858Z,100886.53
2023-02-22T15:04:44.917Z,100884.16
2023-02-22T15:07:28.197Z,100887.94
2023-02-22T15:10:18.706Z,100894.19
2023-02-22T15:13:11.468Z,100900.75
2023-02-22T15:15:48.929Z,100893.66
2023-02-22T15:18:30.369Z,100911.19
2023-02-22T15:21:07.018Z,100901.88
2023-02-22T15:23:45.415Z,100914.47
2023-02-22T15:26:19.502Z,100915.19
2023-02-22T15:28:58.640Z,100920.81
2023-02-22T15:31:32.832Z,100926.00
2023-02-22T15:34:32.287Z,100924.44
2023-02-22T15:37:26.002Z,100934.06
2023-02-22T15:40:00.132Z,100933.06
2023-02-22T15:42:31.206Z,100936.91
2023-02-22T15:44:59.662Z,100931.63
2023-02-22T15:47:30.452Z,100935.56
2023-02-22T15:50:24.424Z,100940.06
2023-02-22T15:53:06.661Z,100934.28
2023-02-22T15:55:38.745Z,100943.41
2023-02-22T15:58:19.600Z,100946.16
2023-02-22T16:01:00.569Z,100948.16
2023-02-22T16:03:34.014Z,100950.91
2023-02-22T16:06:02.742Z,100951.97
2023-02-22T16:08:54.776Z,100957.25
2023-02-22T16:11:36.149Z,100966.28
2023-02-22T16:14:07.858Z,100955.75
2023-02-22T16:16:42.709Z,100955.00
2023-02-22T16:19:29.679Z,100959.41
2023-02-22T16:22:03.791Z,100960.78
2023-02-22T16:24:35.016Z,100953.81
2023-02-22T16:27:08.310Z,100954.41
2023-02-22T16:29:36.640Z,100955.53
2023-02-22T16:32:08.453Z,100947.66
2023-02-22T16:34:36.884Z,100950.34
2023-02-22T16:37:05.242Z,100951.53
2023-02-22T16:39:36.883Z,100954.88
2023-02-22T16:42:10.829Z,100941.06
2023-02-22T16:44:39.167Z,100961.41
2023-02-22T16:47:07.590Z,100948.25
2023-02-22T16:49:35.892Z,100956.53
2023-02-22T16:52:08.517Z,100959.38
2023-02-22T16:54:42.457Z,100956.94
2023-02-22T16:57:21.847Z,100964.53
2023-02-22T16:59:53.528Z,100962.25
2023-02-22T17:02:22.641Z,100970.63
2023-02-22T17:04:51.175Z,100978.97
2023-02-22T17:07:31.710Z,100972.38
2023-02-22T17:10:00.268Z,100979.09
2023-02-22T17:12:33.003Z,100976.84
2023-02-22T17:15:01.405Z,100975.50
2023-02-22T17:17:31.775Z,100979.00
2023-02-22T17:20:02.589Z,100970.75
2023-02-22T17:22:30.946Z,100980.81
2023-02-22T17:24:59.190Z,100979.38
2023-02-22T17:27:27.514Z,100983.38
2023-02-22T17:29:55.830Z,100974.78
2023-02-22T17:32:24.111Z,100981.53
2023-02-22T17:34:53.011Z,100984.09
2023-02-22T17:37:21.339Z,100980.81
2023-02-22T17:39:49.585Z,100983.66
2023-02-22T17:42:17.960Z,100981.34
2023-02-22T17:44:46.235Z,100985.53
2023-02-22T17:47:14.496Z,100986.06
2023-02-22T17:49:42.835Z,100999.63
2023-02-22T17:52:16.449Z,100999.66
2023-02-22T17:54:44.774Z,100993.94
2023-02-22T17:57:13.133Z,101001.69
2023-02-22T17:59:41.480Z,101022.41
2023-02-22T18:02:11.692Z,101011.25
2023-02-22T18:04:41.435Z,101007.84
2023-02-22T18:07:10.735Z,101019.88
2023-02-22T18:09:39.014Z,101010.63
2023-02-22T18:12:07.367Z,101007.22
2023-02-22T18:14:35.677Z,101012.47
2023-02-22T18:17:03.925Z,101003.63
2023-02-22T18:19:32.256Z,101015.13
2023-02-22T18:22:01.146Z,101010.00
2023-02-22T18:24:31.986Z,100999.56
2023-02-22T18:27:00.650Z,101004.78
2023-02-22T18:29:29.804Z,100996.28
2023-02-22T18:31:58.288Z,100995.53
2023-02-22T18:34:26.705Z,101003.19
2023-02-22T18:36:56.166Z,101003.44
2023-02-22T18:39:24.434Z,101007.97
2023-02-22T18:41:52.791Z,101006.09
2023-02-22T18:44:21.556Z,101005.63
2023-02-22T18:46:49.889Z,101003.91
2023-02-22T18:49:18.333Z,101004.34
2023-02-22T18:51:47.233Z,101010.81
2023-02-22T18:54:15.612Z,101007.13
2023-02-22T18:56:43.911Z,101004.56
2023-02-22T18:59:16.549Z,100999.88
2023-02-22T19:01:49.669Z,101003.41
2023-02-22T19:04:19.086Z,100998.50
2023-02-22T19:06:49.815Z,101003.53
2023-02-22T19:09:18.795Z,101000.88
2023-02-22T19:11:49.134Z,100998.19
2023-02-22T19:14:18.336Z,101006.31
2023-02-22T19:16:49.414Z,100999.47
2023-02-22T19:19:23.199Z,100996.38
2023-02-22T19:21:53.079Z,101000.22
2023-02-22T19:24:21.580Z,100993.81
2023-02-22T19:26:54.574Z,100997.69
2023-02-22T19:29:25.962Z,100987.13
2023-02-22T19:31:54.608Z,100990.19
2023-02-22T19:34:25.292Z,100993.72
2023-02-22T19:36:53.699Z,100996.03
2023-02-22T19:41:52.017Z,101003.97
2023-02-22T19:44:20.352Z,101010.38
2023-02-22T19:46:52.790Z,101005.06
2023-02-22T19:49:21.191Z,101009.31
2023-02-22T19:51:49.548Z,101003.34
2023-02-22T19:54:22.198Z,100996.19
2023-02-22T19:56:52.084Z,100996.00
2023-02-22T19:59:24.457Z,100989.97
2023-02-22T20:01:56.357Z,100990.59
2023-02-22T20:04:25.627Z,100994.03
2023-02-22T20:06:55.612Z,100974.31
2023-02-22T20:09:41.181Z,100979.53
2023-02-22T20:12:09.726Z,100978.47
2023-02-22T20:14:38.172Z,100966.88
2023-02-22T20:17:07.884Z,100972.81
2023-02-22T20:19:38.133Z,100962.59
2023-02-22T20:22:06.393Z,100963.66
2023-02-22T20:24:34.663Z,100959.94
2023-02-22T20:27:02.910Z,100970.38
2023-02-22T20:29:31.373Z,100961.66
2023-02-22T20:32:01.674Z,100980.06
2023-02-22T20:34:34.441Z,100971.31
2023-02-22T20:37:03.588Z,100967.81
2023-02-22T20:39:32.498Z,100970.28
2023-02-22T20:45:16.015Z,100962.72
2023-02-22T20:47:45.195Z,100962.28
2023-02-22T20:52:49.474Z,100958.75
2023-02-22T20:58:28.000Z,100953.13
